Date,TemperatureHighF,TemperatureAvgF,TemperatureLowF,DewpointHighF,DewpointAvgF,DewpointLowF,HumidityHigh,HumidityAvg,HumidityLow,PressureMaxIn,PressureMinIn,WindSpeedMaxMPH,WindSpeedAvgMPH,GustSpeedMaxMPH,PrecipitationSumIn
2013-2-1,41,25,17,34,-6,-24,100,28,11,30.35,29.78,23,9,38,0.00
2013-2-2,40,26,14,29,5,-18,99,46,8,30.34,29.98,9,1,12,0.00
2013-2-3,72,35,27,67,10,-3,85,39,22,30.16,29.83,24,8,38,0.19
2013-2-4,70,32,23,20,1,-36,58,29,5,30.23,24.68,20,2,34,0.00
2013-2-5,50,42,27,26,17,9,59,37,19,29.95,29.86,14,3,23,0.00
2013-2-6,58,45,33,30,7,-15,73,26,6,30.30,29.95,16,3,26,0.00
2013-2-7,41,37,29,34,20,12,100,52,39,30.38,30.10,9,1,15,0.01
2013-2-8,50,37,28,35,24,9,100,67,21,30.10,29.83,17,5,29,0.33
2013-2-9,48,36,26,10,-8,-25,41,18,4,30.35,30.05,18,7,29,0.00
2013-2-10,48,36,20,31,4,-16,71,33,7,30.46,30.20,12,2,21,0.06
2013-2-11,63,48,37,47,29,-15,100,63,6,30.20,29.88,14,3,26,0.03
2013-2-12,60,48,42,6,-7,-21,20,11,4,30.05,29.92,19,6,28,0.00
2013-2-13,48,43,39,44,28,-6,100,64,10,29.94,29.62,14,2,23,0.17
2013-2-14,60,43,31,23,7,-18,57,28,5,30.05,29.83,13,2,22,0.00
2013-2-15,62,43,28,35,15,-16,80,42,5,30.08,29.90,14,3,22,0.01
2013-2-16,39,34,25,20,3,-13,45,27,14,30.00,29.84,14,5,22,0.00
2013-2-17,31,24,18,18,-16,-31,72,18,7,30.21,29.89,19,9,31,0.00
2013-2-18,54,37,18,8,-10,-23,42,16,4,30.34,30.14,10,2,14,0.00
2013-2-19,52,44,39,35,8,-22,76,29,5,30.14,29.79,19,6,31,0.02
2013-2-20,44,34,27,-6,-16,-26,18,11,5,30.16,29.95,22,10,32,0.00
2013-2-21,50,38,22,4,-11,-24,32,14,4,30.27,30.11,11,3,17,0.00
2013-2-22,41,35,28,26,15,-6,69,46,14,30.33,30.13,10,2,16,0.02
2013-2-23,52,41,31,43,31,22,100,70,34,30.14,29.81,7,0,9,0.01
2013-2-24,53,45,40,42,8,-35,100,33,5,30.08,29.81,16,6,25,0.00
2013-2-25,47,36,27,16,6,-5,55,30,12,30.21,30.08,9,1,12,0.00
2013-2-26,41,35,27,41,26,5,100,76,34,30.17,29.62,10,1,19,1.27
2013-2-27,50,44,39,42,24,9,100,52,20,29.76,29.58,14,5,22,0.00
2013-2-28,42,39,36,28,13,5,64,35,22,29.83,29.69,16,6,23,0.00